www.srh.weather.gov   
NOAA logo - Click to go to the NOAA homepage   NWS logo
Terminal Aerodrome Forecast
Enter Your "City, ST" or zip code   
Current Version              Previous Version:    01  02  03  04  05  06  07  08  09  10  11  12  13  14  15  16  17  18  19  20  21  22  23  24  25  26  27  28  29  30  
   31  32  33  34  35  36  37  38  39  40  41  42  43  44  45  46  47  48  49  50  51  52  53  54  55  56  57  58  59  60  
[Printable]
125
FTUS45 KABQ 300600 AAA
TAFSAF
TAF AMD
KSAF 300627Z 3006/3106 14015G25KT P6SM VCSH SCT019 BKN035
      TEMPO 3009/3011 14015KT 3SM -SNRA SCT009 BKN019
     FM301100 13011KT 1SM -SN SCT005 BKN010
     FM302100 12009KT 3SM -SN BR SCT005 BKN010
     FM310400 13008KT 3SM -SN BR BKN005=

National Weather Service
Disclaimer
Last Modified: August 31, 2005
Privacy Policy